Terminal Aerodrome Forecast
Issued by NWS Flagstaff, AZ

Home | Current Version | Previous Version | Text Only | Print | Product List | Glossary On
Versions: 1 2 3 4 5 6 7 8 9 10 11 12
000
FTUS45 KFGZ 251722
TAFFLG
TAF
KFLG 251722Z 2518/2618 08010KT P6SM SCT200
     FM252100 22010G20KT P6SM SCT200
     FM260200 VRB05KT P6SM FEW110 SCT200=

USA.gov is the U.S. government's official web portal to all federal, state and local government web resources and services.